createdAt,value
2022-11-20T00:01:11.272Z,99153.56
2022-11-20T00:03:39.410Z,99142.81
2022-11-20T00:06:10.061Z,99135.44
2022-11-20T00:08:37.710Z,99126.34
2022-11-20T00:11:09.354Z,99133.28
2022-11-20T00:13:39.571Z,99144.88
2022-11-20T00:16:11.329Z,99138.19
2022-11-20T00:18:39.486Z,99149.88
2022-11-20T00:21:11.585Z,99155.22
2022-11-20T00:23:39.443Z,99176.13
2022-11-20T00:26:09.737Z,99185.25
2022-11-20T00:28:39.294Z,99184.38
2022-11-20T00:31:10.254Z,99183.91
2022-11-20T00:33:37.913Z,99185.56
2022-11-20T00:36:07.937Z,99186.16
2022-11-20T00:38:36.076Z,99171.13
2022-11-20T00:41:06.177Z,99169.00
2022-11-20T00:43:35.189Z,99179.28
2022-11-20T00:46:14.050Z,99177.44
2022-11-20T00:48:42.374Z,99187.31
2022-11-20T00:51:12.133Z,99177.22
2022-11-20T00:53:39.814Z,99176.63
2022-11-20T00:56:10.775Z,99166.50
2022-11-20T00:58:39.999Z,99155.59
2022-11-20T01:01:10.364Z,99159.28
2022-11-20T01:03:40.902Z,99153.25
2022-11-20T01:06:12.434Z,99151.41
2022-11-20T01:08:40.769Z,99160.25
2022-11-20T01:11:16.328Z,99152.56
2022-11-20T01:13:46.032Z,99146.66
2022-11-20T01:16:37.608Z,99143.62
2022-11-20T01:19:10.457Z,99137.72
2022-11-20T01:21:39.845Z,99138.84
2022-11-20T01:24:15.302Z,99132.31
2022-11-20T01:26:44.485Z,99133.91
2022-11-20T01:29:20.851Z,99126.81
2022-11-20T01:31:49.109Z,99127.75
2022-11-20T01:34:20.080Z,99138.03
2022-11-20T01:36:47.888Z,99146.81
2022-11-20T01:39:21.588Z,99156.41
2022-11-20T01:41:51.877Z,99146.72
2022-11-20T01:44:23.858Z,99146.06
2022-11-20T01:47:03.733Z,99162.31
2022-11-20T01:50:06.104Z,99159.91
2022-11-20T01:52:39.004Z,99155.47
2022-11-20T01:55:23.219Z,99145.19
2022-11-20T01:57:51.367Z,99139.03
2022-11-20T02:00:20.535Z,99126.00
2022-11-20T02:02:54.766Z,99127.97
2022-11-20T02:05:28.466Z,99133.69
2022-11-20T02:07:58.305Z,99143.03
2022-11-20T02:10:28.256Z,99139.41
2022-11-20T02:12:56.360Z,99149.88
2022-11-20T02:15:27.606Z,99142.00
2022-11-20T02:17:58.263Z,99143.09
2022-11-20T02:20:26.287Z,99147.09
2022-11-20T02:23:08.961Z,99156.56
2022-11-20T02:25:37.933Z,99150.47
2022-11-20T02:28:06.248Z,99147.81
2022-11-20T02:30:33.950Z,99154.59
2022-11-20T02:33:01.863Z,99153.13
2022-11-20T02:35:29.416Z,99155.72
2022-11-20T02:38:02.351Z,99156.75
2022-11-20T02:40:30.516Z,99156.75
2022-11-20T02:42:58.458Z,99157.19
2022-11-20T02:45:26.295Z,99148.81
2022-11-20T02:47:54.205Z,99140.63
2022-11-20T02:50:21.786Z,99128.25
2022-11-20T02:52:49.457Z,99122.56
2022-11-20T02:55:17.411Z,99119.47
2022-11-20T02:57:45.084Z,99119.66
2022-11-20T03:00:13.314Z,99124.75
2022-11-20T03:02:41.222Z,99117.47
2022-11-20T03:05:08.901Z,99116.56
2022-11-20T03:07:36.570Z,99098.59
2022-11-20T03:10:05.500Z,99099.44
2022-11-20T03:12:33.126Z,99096.34
2022-11-20T03:15:00.761Z,99094.22
2022-11-20T03:17:28.681Z,99088.13
2022-11-20T03:19:56.274Z,99088.16
2022-11-20T03:22:23.805Z,99098.50
2022-11-20T03:24:51.751Z,99106.41
2022-11-20T03:27:19.441Z,99114.97
2022-11-20T03:29:47.055Z,99116.31
2022-11-20T03:32:15.018Z,99125.50
2022-11-20T03:34:42.664Z,99130.91
2022-11-20T03:37:10.291Z,99127.41
2022-11-20T03:39:38.281Z,99122.63
2022-11-20T03:42:06.270Z,99132.91
2022-11-20T03:44:33.901Z,99125.28
2022-11-20T03:47:01.810Z,99111.63
2022-11-20T03:49:29.579Z,99110.91
2022-11-20T03:51:57.232Z,99097.38
2022-11-20T03:54:25.200Z,99094.84
2022-11-20T03:56:52.804Z,99086.87
2022-11-20T03:59:20.812Z,99085.38
2022-11-20T04:01:49.713Z,99081.75
2022-11-20T04:04:17.751Z,99083.84
2022-11-20T04:06:45.602Z,99075.84
2022-11-20T04:09:13.934Z,99076.94
2022-11-20T04:11:42.254Z,99078.13
2022-11-20T04:14:15.315Z,99072.56
2022-11-20T04:16:43.635Z,99071.81
2022-11-20T04:19:13.343Z,99082.31
2022-11-20T04:21:41.219Z,99078.00
2022-11-20T04:24:09.064Z,99075.62
2022-11-20T04:26:36.916Z,99066.81
2022-11-20T04:29:04.803Z,99065.16
2022-11-20T04:31:34.329Z,99063.47
2022-11-20T04:34:06.673Z,99055.59
2022-11-20T04:36:35.094Z,99058.28
2022-11-20T04:39:05.777Z,99071.69
2022-11-20T04:41:35.623Z,99070.53
2022-11-20T04:44:05.508Z,99087.25
2022-11-20T04:46:38.868Z,99079.97
2022-11-20T04:49:08.379Z,99086.19
2022-11-20T04:51:36.055Z,99096.34
2022-11-20T04:54:03.836Z,99074.38
2022-11-20T04:56:31.752Z,99060.12
2022-11-20T04:59:03.421Z,99041.53
2022-11-20T05:01:31.780Z,99040.63
2022-11-20T05:03:59.725Z,99043.25
2022-11-20T05:06:27.246Z,99050.88
2022-11-20T05:08:55.203Z,99051.78
2022-11-20T05:11:22.974Z,99068.00
2022-11-20T05:13:51.980Z,99058.44
2022-11-20T05:16:22.294Z,99041.28
2022-11-20T05:18:51.407Z,99038.81
2022-11-20T05:21:19.451Z,99027.13
2022-11-20T05:23:47.437Z,99038.66
2022-11-20T05:26:22.563Z,99038.13
2022-11-20T05:28:52.277Z,99034.84
2022-11-20T05:31:27.613Z,99028.06
2022-11-20T05:33:57.682Z,99013.75
2022-11-20T05:36:26.232Z,98998.62
2022-11-20T05:39:01.046Z,98985.50
2022-11-20T05:41:30.286Z,98975.09
2022-11-20T05:43:58.929Z,99008.75
2022-11-20T05:46:29.000Z,99017.44
2022-11-20T05:48:58.040Z,99013.22
2022-11-20T05:51:26.774Z,99029.91
2022-11-20T05:53:55.657Z,99034.28
2022-11-20T05:56:23.520Z,99041.59
2022-11-20T05:58:51.223Z,99038.75
2022-11-20T06:01:24.474Z,99037.12
2022-11-20T06:03:53.777Z,99033.19
2022-11-20T06:06:21.630Z,99024.25
2022-11-20T06:08:49.747Z,99036.75
2022-11-20T06:11:18.169Z,99043.91
2022-11-20T06:13:46.234Z,99061.63
2022-11-20T06:16:16.181Z,99059.06
2022-11-20T06:18:44.391Z,99042.84
2022-11-20T06:21:13.117Z,99029.28
2022-11-20T06:23:41.306Z,99023.22
2022-11-20T06:26:14.302Z,99045.22
2022-11-20T06:28:42.224Z,99045.56
2022-11-20T06:31:13.153Z,99029.97
2022-11-20T06:33:41.433Z,99023.91
2022-11-20T06:36:11.244Z,99037.97
2022-11-20T06:38:39.787Z,99047.22
2022-11-20T06:41:12.044Z,99068.41
2022-11-20T06:43:40.076Z,99084.97
2022-11-20T06:46:09.927Z,99090.12
2022-11-20T06:48:37.619Z,99098.72
2022-11-20T06:51:07.511Z,99108.03
2022-11-20T06:53:35.679Z,99115.75
2022-11-20T06:56:03.593Z,99115.84
2022-11-20T06:58:32.681Z,99106.56
2022-11-20T07:01:14.381Z,99096.69
2022-11-20T07:03:42.618Z,99091.59
2022-11-20T07:06:10.324Z,99089.78
2022-11-20T07:08:38.131Z,99092.94
2022-11-20T07:11:07.507Z,99081.38
2022-11-20T07:13:35.277Z,99073.53
2022-11-20T07:16:05.005Z,99062.16
2022-11-20T07:18:33.366Z,99044.62
2022-11-20T07:21:08.620Z,99058.19
2022-11-20T07:23:37.169Z,99059.75
2022-11-20T07:26:12.053Z,99065.13
2022-11-20T07:28:40.103Z,99070.72
2022-11-20T07:31:09.000Z,99076.28
2022-11-20T07:33:36.726Z,99090.56
2022-11-20T07:36:05.222Z,99096.47
2022-11-20T07:38:32.863Z,99107.44
2022-11-20T07:41:00.557Z,99107.50
2022-11-20T07:43:28.654Z,99110.97
2022-11-20T07:45:57.398Z,99119.75
2022-11-20T07:48:25.513Z,99118.88
2022-11-20T07:50:57.526Z,99117.94
2022-11-20T07:53:25.553Z,99121.16
2022-11-20T07:55:53.666Z,99120.56
2022-11-20T07:58:21.943Z,99133.88
2022-11-20T08:00:51.440Z,99123.41
2022-11-20T08:03:24.734Z,99118.31
2022-11-20T08:05:53.061Z,99105.22
2022-11-20T08:08:21.508Z,99108.91
2022-11-20T08:10:49.237Z,99104.16
2022-11-20T08:13:16.830Z,99107.50
2022-11-20T08:15:49.500Z,99121.25
2022-11-20T08:18:33.271Z,99129.44
2022-11-20T08:21:07.836Z,99112.38
2022-11-20T08:23:35.523Z,99106.63
2022-11-20T08:26:03.498Z,99118.03
2022-11-20T08:28:31.373Z,99118.13
2022-11-20T08:31:02.753Z,99114.72
2022-11-20T08:33:30.896Z,99110.00
2022-11-20T08:36:02.473Z,99105.09
2022-11-20T08:38:31.535Z,99111.81
2022-11-20T08:41:03.870Z,99101.75
2022-11-20T08:43:31.733Z,99103.34
2022-11-20T08:45:59.412Z,99104.81
2022-11-20T08:48:27.131Z,99118.16
2022-11-20T08:50:59.281Z,99118.19
2022-11-20T08:53:27.743Z,99128.56
2022-11-20T08:55:55.796Z,99127.19
2022-11-20T08:58:23.658Z,99118.75
2022-11-20T09:00:51.856Z,99114.50
2022-11-20T09:03:19.817Z,99115.03
2022-11-20T09:05:47.498Z,99119.28
2022-11-20T09:08:16.782Z,99119.34
2022-11-20T09:10:44.630Z,99119.88
2022-11-20T09:13:12.181Z,99116.94
2022-11-20T09:15:39.907Z,99122.28
2022-11-20T09:18:08.207Z,99120.44
2022-11-20T09:20:35.743Z,99141.41
2022-11-20T09:23:03.379Z,99139.56
2022-11-20T09:25:31.391Z,99134.25
2022-11-20T09:27:59.625Z,99129.72
2022-11-20T09:30:30.204Z,99117.72
2022-11-20T09:32:58.234Z,99111.00
2022-11-20T09:35:26.034Z,99113.34
2022-11-20T09:37:53.761Z,99114.66
2022-11-20T09:40:30.752Z,99105.34
2022-11-20T09:42:59.118Z,99113.31
2022-11-20T09:46:15.398Z,99117.91
2022-11-20T09:48:57.493Z,99118.84
2022-11-20T09:51:43.679Z,99111.19
2022-11-20T09:54:16.435Z,99109.25
2022-11-20T09:56:51.356Z,99105.06
2022-11-20T09:59:47.895Z,99099.25
2022-11-20T10:02:24.888Z,99096.28
2022-11-20T10:05:13.709Z,99098.91
2022-11-20T10:08:23.883Z,99111.66
2022-11-20T10:10:57.149Z,99099.25
2022-11-20T10:13:51.385Z,99086.87
2022-11-20T10:16:49.823Z,99078.81
2022-11-20T10:19:17.457Z,99069.72
2022-11-20T10:22:14.283Z,99060.94
2022-11-20T10:24:52.557Z,99046.22
2022-11-20T10:27:23.204Z,99048.78
2022-11-20T10:30:08.895Z,99056.72
2022-11-20T10:33:06.356Z,99056.28
2022-11-20T10:35:42.826Z,99066.62
2022-11-20T10:38:21.371Z,99060.22
2022-11-20T10:41:03.617Z,99060.09
2022-11-20T10:43:34.474Z,99068.28
2022-11-20T10:46:05.221Z,99078.69
2022-11-20T10:48:33.484Z,99082.59
2022-11-20T10:51:28.870Z,99083.44
2022-11-20T10:54:13.924Z,99078.00
2022-11-20T10:56:50.208Z,99070.69
2022-11-20T10:59:56.416Z,99066.16
2022-11-20T11:02:25.756Z,99079.41
2022-11-20T11:04:54.814Z,99086.63
2022-11-20T11:07:29.171Z,99090.25
2022-11-20T11:09:57.935Z,99089.91
2022-11-20T11:12:27.453Z,99091.91
2022-11-20T11:14:58.830Z,99096.78
2022-11-20T11:17:33.275Z,99103.59
2022-11-20T11:20:18.865Z,99111.47
2022-11-20T11:22:54.875Z,99099.78
2022-11-20T11:25:30.950Z,99092.06
2022-11-20T11:28:03.187Z,99086.87
2022-11-20T11:30:41.820Z,99075.56
2022-11-20T11:33:32.972Z,99071.25
2022-11-20T11:36:03.092Z,99081.34
2022-11-20T11:38:42.080Z,99090.66
2022-11-20T11:41:16.362Z,99094.87
2022-11-20T11:44:02.225Z,99087.06
2022-11-20T11:46:33.571Z,99081.66
2022-11-20T11:49:10.865Z,99068.91
2022-11-20T11:52:00.305Z,99058.28
2022-11-20T11:54:49.358Z,99038.94
2022-11-20T11:57:24.368Z,99038.84
2022-11-20T11:59:52.268Z,99046.56
2022-11-20T12:02:47.197Z,99062.94
2022-11-20T12:05:28.287Z,99067.69
2022-11-20T12:07:59.018Z,99066.31
2022-11-20T12:10:39.279Z,99047.56
2022-11-20T12:13:28.576Z,99047.84
2022-11-20T12:15:56.802Z,99045.91
2022-11-20T12:18:24.418Z,99052.38
2022-11-20T12:21:01.423Z,99059.06
2022-11-20T12:23:36.474Z,99066.75
2022-11-20T12:26:29.177Z,99068.16
2022-11-20T12:29:10.793Z,99058.13
2022-11-20T12:31:58.755Z,99061.91
2022-11-20T12:34:46.739Z,99048.94
2022-11-20T12:37:37.449Z,99063.06
2022-11-20T12:40:18.647Z,99068.38
2022-11-20T12:42:54.093Z,99077.84
2022-11-20T12:45:25.101Z,99074.06
2022-11-20T12:47:59.407Z,99069.84
2022-11-20T12:51:19.167Z,99067.47
2022-11-20T12:54:01.056Z,99073.72
2022-11-20T12:56:36.678Z,99074.13
2022-11-20T12:59:28.094Z,99080.75
2022-11-20T13:02:17.514Z,99078.87
2022-11-20T13:05:12.726Z,99073.44
2022-11-20T13:07:42.026Z,99066.91
2022-11-20T13:10:18.755Z,99067.38
2022-11-20T13:13:05.987Z,99073.44
2022-11-20T13:15:40.833Z,99072.16
2022-11-20T13:18:12.568Z,99075.91
2022-11-20T13:20:45.106Z,99074.19
2022-11-20T13:23:26.981Z,99076.22
2022-11-20T13:26:06.616Z,99079.56
2022-11-20T13:28:34.595Z,99081.72
2022-11-20T13:31:02.339Z,99077.34
2022-11-20T13:33:33.027Z,99071.06
2022-11-20T13:36:06.782Z,99060.81
2022-11-20T13:39:04.049Z,99054.84
2022-11-20T13:41:35.345Z,99041.81
2022-11-20T13:44:16.020Z,99033.41
2022-11-20T13:46:46.277Z,99027.44
2022-11-20T13:49:32.488Z,99034.88
2022-11-20T13:52:21.851Z,99029.81
2022-11-20T13:55:17.335Z,99022.22
2022-11-20T13:58:20.683Z,99021.16
2022-11-20T14:00:58.214Z,99023.88
2022-11-20T14:06:30.630Z,99013.47
2022-11-20T14:08:59.861Z,99015.06
2022-11-20T14:11:30.127Z,99015.91
2022-11-20T14:14:05.357Z,99018.75
2022-11-20T14:16:36.947Z,99025.37
2022-11-20T14:19:20.272Z,99018.16
2022-11-20T14:22:07.751Z,99025.25
2022-11-20T14:24:36.163Z,99027.78
2022-11-20T14:27:04.203Z,99029.12
2022-11-20T14:29:36.597Z,99029.44
2022-11-20T14:32:05.376Z,99026.44
2022-11-20T14:34:37.005Z,99030.75
2022-11-20T14:37:16.603Z,99032.41
2022-11-20T14:39:53.945Z,99031.59
2022-11-20T14:42:24.230Z,99033.94
2022-11-20T14:44:55.539Z,99045.88
2022-11-20T14:47:28.129Z,99043.56
2022-11-20T14:49:56.679Z,99047.03
2022-11-20T14:52:26.419Z,99056.44
2022-11-20T14:54:58.795Z,99052.25
2022-11-20T14:57:31.830Z,99066.19
2022-11-20T15:00:08.289Z,99067.78
2022-11-20T15:02:41.071Z,99073.38
2022-11-20T15:05:09.812Z,99080.22
2022-11-20T15:07:41.108Z,99077.06
2022-11-20T15:10:14.722Z,99085.72
2022-11-20T15:12:51.868Z,99090.94
2022-11-20T15:15:36.277Z,99091.78
2022-11-20T15:18:04.666Z,99088.56
2022-11-20T15:20:34.152Z,99086.47
2022-11-20T15:23:01.873Z,99084.88
2022-11-20T15:25:29.708Z,99086.47
2022-11-20T15:27:57.665Z,99085.66
2022-11-20T15:30:25.554Z,99084.94
2022-11-20T15:32:53.801Z,99079.66
2022-11-20T15:35:22.652Z,99068.66
2022-11-20T15:37:51.245Z,99076.97
2022-11-20T15:40:19.361Z,99073.84
2022-11-20T15:42:47.305Z,99071.25
2022-11-20T15:45:15.690Z,99072.13
2022-11-20T15:47:44.101Z,99076.63
2022-11-20T15:50:18.096Z,99085.22
2022-11-20T15:52:46.162Z,99086.03
2022-11-20T15:55:14.228Z,99092.72
2022-11-20T15:57:42.561Z,99098.31
2022-11-20T16:00:12.505Z,99099.91
2022-11-20T16:02:43.132Z,99099.38
2022-11-20T16:05:12.741Z,99095.69
2022-11-20T16:07:41.500Z,99092.50
2022-11-20T16:10:09.653Z,99089.06
2022-11-20T16:20:40.994Z,99074.97
2022-11-20T16:23:09.463Z,99060.62
2022-11-20T16:25:37.223Z,99068.03
2022-11-20T16:28:06.270Z,99066.72
2022-11-20T16:30:34.900Z,99070.66
2022-11-20T16:33:04.753Z,99067.44
2022-11-20T16:35:32.588Z,99070.91
2022-11-20T16:38:01.538Z,99079.37
2022-11-20T16:40:29.572Z,99078.06
2022-11-20T16:42:57.646Z,99071.16
2022-11-20T16:45:30.017Z,99068.78
2022-11-20T16:48:00.854Z,99065.06
2022-11-20T16:50:29.043Z,99070.59
2022-11-20T16:53:04.233Z,99078.53
2022-11-20T16:55:41.277Z,99070.84
2022-11-20T16:58:09.291Z,99071.37
2022-11-20T17:00:39.940Z,99063.94
2022-11-20T17:03:08.630Z,99063.13
2022-11-20T17:05:36.717Z,99058.09
2022-11-20T17:08:05.081Z,99059.16
2022-11-20T17:10:33.216Z,99052.25
2022-11-20T17:13:01.153Z,99046.09
2022-11-20T17:15:29.223Z,99044.50
2022-11-20T17:17:59.898Z,99050.66
2022-11-20T17:20:27.848Z,99038.09
2022-11-20T17:22:56.499Z,99037.56
2022-11-20T17:25:26.116Z,99028.75
2022-11-20T17:27:54.518Z,99034.56
2022-11-20T17:30:24.142Z,99031.19
2022-11-20T17:32:54.951Z,99020.78
2022-11-20T17:35:22.826Z,99012.00
2022-11-20T17:37:50.641Z,99006.72
2022-11-20T17:40:21.966Z,99003.78
2022-11-20T17:42:53.756Z,99003.19
2022-11-20T17:45:23.304Z,99008.47
2022-11-20T17:47:51.283Z,99006.88
2022-11-20T17:50:19.132Z,99011.13
2022-11-20T17:52:47.418Z,99006.09
2022-11-20T17:55:15.473Z,98995.50
2022-11-20T17:57:43.169Z,98998.41
2022-11-20T18:00:18.171Z,99000.66
2022-11-20T18:02:55.572Z,99012.38
2022-11-20T18:05:23.446Z,99026.78
2022-11-20T18:07:53.216Z,99025.91
2022-11-20T18:10:21.094Z,99041.00
2022-11-20T18:12:48.948Z,99045.81
2022-11-20T18:15:18.237Z,99042.09
2022-11-20T18:17:46.282Z,99060.03
2022-11-20T18:20:28.285Z,99055.50
2022-11-20T18:22:58.242Z,99071.41
2022-11-20T18:25:26.133Z,99065.59
2022-11-20T18:27:54.505Z,99074.69
2022-11-20T18:30:23.467Z,99072.59
2022-11-20T18:32:51.373Z,99073.91
2022-11-20T18:35:19.395Z,99082.62
2022-11-20T18:37:47.404Z,99083.69
2022-11-20T18:40:15.106Z,99081.25
2022-11-20T18:42:43.358Z,99063.37
2022-11-20T18:45:11.597Z,99072.03
2022-11-20T18:47:39.494Z,99069.88
2022-11-20T18:50:09.135Z,99067.16
2022-11-20T18:52:42.158Z,99074.59
2022-11-20T18:55:10.645Z,99075.81
2022-11-20T18:57:38.627Z,99072.75
2022-11-20T19:00:09.616Z,99079.66
2022-11-20T19:02:42.969Z,99085.81
2022-11-20T19:05:12.554Z,99094.50
2022-11-20T19:07:41.756Z,99080.03
2022-11-20T19:10:13.981Z,99078.81
2022-11-20T19:12:42.352Z,99069.66
2022-11-20T19:15:10.559Z,99068.66
2022-11-20T19:17:38.700Z,99062.19
2022-11-20T19:20:07.364Z,99046.41
2022-11-20T19:22:36.242Z,99050.41
2022-11-20T19:25:04.190Z,99053.28
2022-11-20T19:27:32.120Z,99050.19
2022-11-20T19:30:00.116Z,99055.87
2022-11-20T19:32:27.983Z,99033.72
2022-11-20T19:34:56.002Z,99026.88
2022-11-20T19:37:23.952Z,99031.16
2022-11-20T19:39:52.273Z,99037.47
2022-11-20T19:42:20.986Z,99043.50
2022-11-20T19:44:48.860Z,99037.66
2022-11-20T19:47:16.674Z,99022.84
2022-11-20T19:49:44.967Z,99021.88
2022-11-20T19:52:12.657Z,99020.09
2022-11-20T19:54:40.552Z,99020.19
2022-11-20T19:57:10.047Z,99030.97
2022-11-20T19:59:38.394Z,99039.72
2022-11-20T20:02:06.603Z,99049.72
2022-11-20T20:04:34.738Z,99045.59
2022-11-20T20:07:02.475Z,99048.31
2022-11-20T20:09:33.153Z,99040.09
2022-11-20T20:12:01.518Z,99030.38
2022-11-20T20:14:29.404Z,99032.84
2022-11-20T20:16:57.273Z,99032.69
2022-11-20T20:19:26.032Z,99017.69
2022-11-20T20:21:54.624Z,99005.81
2022-11-20T20:24:23.159Z,99006.53
2022-11-20T20:26:54.321Z,99008.06
2022-11-20T20:29:26.066Z,98997.28
2022-11-20T20:31:54.158Z,98993.84
2022-11-20T20:34:22.124Z,98999.16
2022-11-20T20:36:50.903Z,99005.16
2022-11-20T20:39:19.213Z,99003.19
2022-11-20T20:41:47.072Z,99000.47
2022-11-20T20:44:15.391Z,99007.78
2022-11-20T20:46:43.479Z,99023.03
2022-11-20T20:49:11.441Z,99022.47
2022-11-20T20:51:39.276Z,99020.28
2022-11-20T20:54:08.980Z,99014.00
2022-11-20T20:56:37.214Z,99010.47
2022-11-20T20:59:04.965Z,99009.63
2022-11-20T21:01:35.270Z,99002.94
2022-11-20T21:04:06.560Z,99007.75
2022-11-20T21:06:34.542Z,99006.97
2022-11-20T21:09:02.203Z,99017.59
2022-11-20T21:11:29.859Z,99006.94
2022-11-20T21:13:57.894Z,99002.63
2022-11-20T21:16:27.206Z,99002.72
2022-11-20T21:19:00.709Z,98998.25
2022-11-20T21:21:28.787Z,98992.16
2022-11-20T21:23:56.498Z,98984.47
2022-11-20T21:26:24.345Z,98992.34
2022-11-20T21:28:56.847Z,98998.22
2022-11-20T21:31:25.656Z,99002.22
2022-11-20T21:33:55.477Z,99001.31
2022-11-20T21:36:28.006Z,98998.31
2022-11-20T21:38:57.516Z,98999.88
2022-11-20T21:41:27.617Z,99004.38
2022-11-20T21:44:29.044Z,99003.81
2022-11-20T21:46:44.945Z,99009.34
2022-11-20T21:49:12.735Z,99004.16
2022-11-20T21:51:41.098Z,99004.16
2022-11-20T21:54:09.700Z,99003.75
2022-11-20T21:56:37.388Z,98999.91
2022-11-20T21:59:04.997Z,98993.31
2022-11-20T22:01:32.993Z,98995.63
2022-11-20T22:04:02.345Z,98981.50
2022-11-20T22:06:32.185Z,98976.62
2022-11-20T22:09:00.637Z,98971.28
2022-11-20T22:11:28.554Z,98974.56
2022-11-20T22:13:56.435Z,98963.00
2022-11-20T22:16:24.129Z,98964.66
2022-11-20T22:18:56.682Z,98960.22
2022-11-20T22:21:26.146Z,98953.78
2022-11-20T22:23:54.636Z,98962.13
2022-11-20T22:26:24.379Z,98958.91
2022-11-20T22:28:56.883Z,98959.69
2022-11-20T22:31:26.791Z,98955.72
2022-11-20T22:33:58.245Z,98957.94
2022-11-20T22:36:30.140Z,98956.87
2022-11-20T22:38:57.717Z,98960.56
2022-11-20T22:41:28.759Z,98952.94
2022-11-20T22:43:57.148Z,98956.66
2022-11-20T22:46:25.977Z,98950.22
2022-11-20T22:48:55.678Z,98962.66
2022-11-20T22:51:35.538Z,98966.94
2022-11-20T22:54:03.408Z,98970.59
2022-11-20T22:56:31.580Z,98970.53
2022-11-20T22:59:01.321Z,98968.41
2022-11-20T23:01:31.400Z,98969.28
2022-11-20T23:04:01.294Z,98975.06
2022-11-20T23:06:29.545Z,98963.87
2022-11-20T23:08:57.252Z,98962.63
2022-11-20T23:11:29.775Z,98962.31
2022-11-20T23:14:05.698Z,98957.78
2022-11-20T23:16:34.022Z,98953.53
2022-11-20T23:19:07.506Z,98949.03
2022-11-20T23:21:36.748Z,98949.16
2022-11-20T23:24:05.021Z,98953.22
2022-11-20T23:26:35.258Z,98947.31
2022-11-20T23:29:04.262Z,98939.44
2022-11-20T23:31:33.499Z,98942.22
2022-11-20T23:34:03.941Z,98938.94
2022-11-20T23:36:31.874Z,98934.94
2022-11-20T23:38:59.481Z,98932.56
2022-11-20T23:41:27.078Z,98930.22
2022-11-20T23:43:55.097Z,98936.31
2022-11-20T23:46:22.729Z,98931.38
2022-11-20T23:48:50.477Z,98931.81
2022-11-20T23:51:18.568Z,98923.78
2022-11-20T23:53:46.690Z,98914.81
2022-11-20T23:56:14.535Z,98915.66
2022-11-20T23:58:43.045Z,98905.69
